sensor_id;sensor_type;location;lat;lon;timestamp;P1;durP1;ratioP1;P2;durP2;ratioP2
34403;SDS011;23116;47.660;9.126;2024-02-16T00:01:11;3.00;;;2.40;;
34403;SDS011;23116;47.660;9.126;2024-02-16T00:03:39;2.80;;;2.28;;
34403;SDS011;23116;47.660;9.126;2024-02-16T00:06:07;4.38;;;2.42;;
34403;SDS011;23116;47.660;9.126;2024-02-16T00:08:34;4.28;;;2.85;;
34403;SDS011;23116;47.660;9.126;2024-02-16T00:11:03;3.40;;;2.47;;
34403;SDS011;23116;47.660;9.126;2024-02-16T00:13:31;3.42;;;2.30;;
34403;SDS011;23116;47.660;9.126;2024-02-16T00:15:58;2.92;;;2.63;;
34403;SDS011;23116;47.660;9.126;2024-02-16T00:18:25;4.13;;;2.75;;
34403;SDS011;23116;47.660;9.126;2024-02-16T00:20:52;2.42;;;2.22;;
34403;SDS011;23116;47.660;9.126;2024-02-16T00:23:19;3.67;;;2.42;;
34403;SDS011;23116;47.660;9.126;2024-02-16T00:25:47;3.08;;;2.38;;
34403;SDS011;23116;47.660;9.126;2024-02-16T00:28:14;3.20;;;2.33;;
34403;SDS011;23116;47.660;9.126;2024-02-16T00:30:42;2.85;;;2.63;;
34403;SDS011;23116;47.660;9.126;2024-02-16T00:33:09;2.88;;;2.50;;
34403;SDS011;23116;47.660;9.126;2024-02-16T00:35:36;3.88;;;2.38;;
34403;SDS011;23116;47.660;9.126;2024-02-16T00:38:03;3.45;;;2.80;;
34403;SDS011;23116;47.660;9.126;2024-02-16T00:40:31;2.90;;;2.60;;
34403;SDS011;23116;47.660;9.126;2024-02-16T00:42:58;3.42;;;2.92;;
34403;SDS011;23116;47.660;9.126;2024-02-16T00:45:25;3.20;;;2.90;;
34403;SDS011;23116;47.660;9.126;2024-02-16T00:47:53;3.65;;;3.05;;
34403;SDS011;23116;47.660;9.126;2024-02-16T00:50:20;3.33;;;2.80;;
34403;SDS011;23116;47.660;9.126;2024-02-16T00:52:48;4.32;;;2.97;;
34403;SDS011;23116;47.660;9.126;2024-02-16T00:55:16;3.08;;;2.47;;
34403;SDS011;23116;47.660;9.126;2024-02-16T00:57:43;3.00;;;2.60;;
34403;SDS011;23116;47.660;9.126;2024-02-16T01:00:10;2.85;;;2.25;;
34403;SDS011;23116;47.660;9.126;2024-02-16T01:02:40;2.45;;;2.08;;
34403;SDS011;23116;47.660;9.126;2024-02-16T01:05:07;2.75;;;2.00;;
34403;SDS011;23116;47.660;9.126;2024-02-16T01:07:35;2.15;;;1.88;;
34403;SDS011;23116;47.660;9.126;2024-02-16T01:10:04;3.22;;;2.17;;
34403;SDS011;23116;47.660;9.126;2024-02-16T01:12:32;2.83;;;2.28;;
34403;SDS011;23116;47.660;9.126;2024-02-16T01:14:59;2.58;;;2.08;;
34403;SDS011;23116;47.660;9.126;2024-02-16T01:17:26;2.58;;;2.00;;
34403;SDS011;23116;47.660;9.126;2024-02-16T01:19:54;3.22;;;2.28;;
34403;SDS011;23116;47.660;9.126;2024-02-16T01:22:21;3.10;;;2.10;;
34403;SDS011;23116;47.660;9.126;2024-02-16T01:24:49;2.60;;;2.40;;
34403;SDS011;23116;47.660;9.126;2024-02-16T01:27:16;3.47;;;2.70;;
34403;SDS011;23116;47.660;9.126;2024-02-16T01:29:43;2.55;;;2.35;;
34403;SDS011;23116;47.660;9.126;2024-02-16T01:32:10;2.70;;;2.30;;
34403;SDS011;23116;47.660;9.126;2024-02-16T01:34:39;2.45;;;2.22;;
34403;SDS011;23116;47.660;9.126;2024-02-16T01:37:06;2.97;;;2.42;;
34403;SDS011;23116;47.660;9.126;2024-02-16T01:39:33;3.20;;;2.67;;
34403;SDS011;23116;47.660;9.126;2024-02-16T01:42:00;2.45;;;2.08;;
34403;SDS011;23116;47.660;9.126;2024-02-16T01:44:28;2.70;;;2.38;;
34403;SDS011;23116;47.660;9.126;2024-02-16T01:46:55;2.83;;;2.60;;
34403;SDS011;23116;47.660;9.126;2024-02-16T01:49:22;3.38;;;2.60;;
34403;SDS011;23116;47.660;9.126;2024-02-16T01:51:49;2.95;;;2.30;;
34403;SDS011;23116;47.660;9.126;2024-02-16T01:54:16;3.97;;;2.20;;
34403;SDS011;23116;47.660;9.126;2024-02-16T01:56:44;3.28;;;2.60;;
34403;SDS011;23116;47.660;9.126;2024-02-16T01:59:11;3.40;;;3.10;;
34403;SDS011;23116;47.660;9.126;2024-02-16T02:01:39;4.05;;;2.70;;
34403;SDS011;23116;47.660;9.126;2024-02-16T02:04:06;4.45;;;2.95;;
34403;SDS011;23116;47.660;9.126;2024-02-16T02:06:33;3.08;;;2.78;;
34403;SDS011;23116;47.660;9.126;2024-02-16T02:09:01;3.58;;;2.72;;
34403;SDS011;23116;47.660;9.126;2024-02-16T02:11:28;3.30;;;2.90;;
34403;SDS011;23116;47.660;9.126;2024-02-16T02:13:55;4.28;;;3.20;;
34403;SDS011;23116;47.660;9.126;2024-02-16T02:16:22;3.20;;;2.75;;
34403;SDS011;23116;47.660;9.126;2024-02-16T02:18:52;2.83;;;2.47;;
34403;SDS011;23116;47.660;9.126;2024-02-16T02:21:19;3.88;;;2.83;;
34403;SDS011;23116;47.660;9.126;2024-02-16T02:23:46;4.38;;;3.10;;
34403;SDS011;23116;47.660;9.126;2024-02-16T02:26:14;3.25;;;2.95;;
34403;SDS011;23116;47.660;9.126;2024-02-16T02:28:44;3.22;;;2.80;;
34403;SDS011;23116;47.660;9.126;2024-02-16T02:31:11;3.58;;;3.20;;
34403;SDS011;23116;47.660;9.126;2024-02-16T02:33:39;4.18;;;3.70;;
34403;SDS011;23116;47.660;9.126;2024-02-16T02:36:06;3.45;;;2.95;;
34403;SDS011;23116;47.660;9.126;2024-02-16T02:38:33;3.53;;;3.22;;
34403;SDS011;23116;47.660;9.126;2024-02-16T02:41:00;3.40;;;2.70;;
34403;SDS011;23116;47.660;9.126;2024-02-16T02:43:28;2.97;;;2.58;;
34403;SDS011;23116;47.660;9.126;2024-02-16T02:45:56;3.75;;;3.30;;
34403;SDS011;23116;47.660;9.126;2024-02-16T02:48:23;3.80;;;3.40;;
34403;SDS011;23116;47.660;9.126;2024-02-16T02:50:50;4.05;;;3.08;;
34403;SDS011;23116;47.660;9.126;2024-02-16T02:53:18;5.47;;;3.33;;
34403;SDS011;23116;47.660;9.126;2024-02-16T02:55:45;4.80;;;3.40;;
34403;SDS011;23116;47.660;9.126;2024-02-16T02:58:12;3.28;;;2.60;;
34403;SDS011;23116;47.660;9.126;2024-02-16T03:00:39;3.55;;;3.00;;
34403;SDS011;23116;47.660;9.126;2024-02-16T03:03:06;4.80;;;2.65;;
34403;SDS011;23116;47.660;9.126;2024-02-16T03:05:33;3.20;;;2.90;;
34403;SDS011;23116;47.660;9.126;2024-02-16T03:08:01;3.03;;;2.65;;
34403;SDS011;23116;47.660;9.126;2024-02-16T03:10:28;3.22;;;2.92;;
34403;SDS011;23116;47.660;9.126;2024-02-16T03:13:00;3.53;;;2.80;;
34403;SDS011;23116;47.660;9.126;2024-02-16T03:15:28;3.83;;;3.08;;
34403;SDS011;23116;47.660;9.126;2024-02-16T03:17:55;2.85;;;2.53;;
34403;SDS011;23116;47.660;9.126;2024-02-16T03:20:22;5.78;;;2.90;;
34403;SDS011;23116;47.660;9.126;2024-02-16T03:22:49;3.47;;;3.00;;
34403;SDS011;23116;47.660;9.126;2024-02-16T03:25:16;3.55;;;2.90;;
34403;SDS011;23116;47.660;9.126;2024-02-16T03:27:43;4.32;;;2.63;;
34403;SDS011;23116;47.660;9.126;2024-02-16T03:30:11;3.55;;;2.97;;
34403;SDS011;23116;47.660;9.126;2024-02-16T03:32:38;4.50;;;2.90;;
34403;SDS011;23116;47.660;9.126;2024-02-16T03:35:06;3.83;;;2.85;;
34403;SDS011;23116;47.660;9.126;2024-02-16T03:37:33;2.70;;;2.50;;
34403;SDS011;23116;47.660;9.126;2024-02-16T03:40:00;2.75;;;2.55;;
34403;SDS011;23116;47.660;9.126;2024-02-16T03:42:30;2.83;;;2.60;;
34403;SDS011;23116;47.660;9.126;2024-02-16T03:44:57;3.00;;;2.65;;
34403;SDS011;23116;47.660;9.126;2024-02-16T03:47:24;3.03;;;2.72;;
34403;SDS011;23116;47.660;9.126;2024-02-16T03:49:51;3.58;;;2.92;;
34403;SDS011;23116;47.660;9.126;2024-02-16T03:52:18;2.70;;;2.50;;
34403;SDS011;23116;47.660;9.126;2024-02-16T03:54:44;3.50;;;2.60;;
34403;SDS011;23116;47.660;9.126;2024-02-16T03:57:13;3.50;;;2.50;;
34403;SDS011;23116;47.660;9.126;2024-02-16T03:59:42;3.13;;;2.83;;
34403;SDS011;23116;47.660;9.126;2024-02-16T04:02:12;2.83;;;2.53;;
34403;SDS011;23116;47.660;9.126;2024-02-16T04:04:41;3.22;;;2.88;;
34403;SDS011;23116;47.660;9.126;2024-02-16T04:07:07;3.53;;;3.22;;
34403;SDS011;23116;47.660;9.126;2024-02-16T04:09:34;4.47;;;2.70;;
34403;SDS011;23116;47.660;9.126;2024-02-16T04:12:01;3.97;;;3.08;;
34403;SDS011;23116;47.660;9.126;2024-02-16T04:14:29;3.42;;;3.13;;
34403;SDS011;23116;47.660;9.126;2024-02-16T04:16:56;2.70;;;2.45;;
34403;SDS011;23116;47.660;9.126;2024-02-16T04:19:25;5.60;;;3.30;;
34403;SDS011;23116;47.660;9.126;2024-02-16T04:21:52;3.28;;;2.97;;
34403;SDS011;23116;47.660;9.126;2024-02-16T04:24:19;5.18;;;3.28;;
34403;SDS011;23116;47.660;9.126;2024-02-16T04:26:47;3.65;;;3.08;;
34403;SDS011;23116;47.660;9.126;2024-02-16T04:29:14;3.45;;;3.15;;
34403;SDS011;23116;47.660;9.126;2024-02-16T04:31:41;4.35;;;3.40;;
34403;SDS011;23116;47.660;9.126;2024-02-16T04:34:10;4.05;;;3.20;;
34403;SDS011;23116;47.660;9.126;2024-02-16T04:36:39;4.93;;;3.45;;
34403;SDS011;23116;47.660;9.126;2024-02-16T04:39:07;2.80;;;2.60;;
34403;SDS011;23116;47.660;9.126;2024-02-16T04:41:35;3.25;;;2.95;;
34403;SDS011;23116;47.660;9.126;2024-02-16T04:44:02;4.93;;;3.40;;
34403;SDS011;23116;47.660;9.126;2024-02-16T04:46:29;7.20;;;4.13;;
34403;SDS011;23116;47.660;9.126;2024-02-16T04:48:56;3.78;;;3.38;;
34403;SDS011;23116;47.660;9.126;2024-02-16T04:51:23;3.95;;;3.55;;
34403;SDS011;23116;47.660;9.126;2024-02-16T04:53:50;3.28;;;2.97;;
34403;SDS011;23116;47.660;9.126;2024-02-16T04:56:18;5.68;;;3.92;;
34403;SDS011;23116;47.660;9.126;2024-02-16T04:58:45;3.55;;;3.25;;
34403;SDS011;23116;47.660;9.126;2024-02-16T05:01:12;3.80;;;3.30;;
34403;SDS011;23116;47.660;9.126;2024-02-16T05:03:40;5.07;;;3.90;;
34403;SDS011;23116;47.660;9.126;2024-02-16T05:06:07;3.20;;;3.00;;
34403;SDS011;23116;47.660;9.126;2024-02-16T05:08:34;4.63;;;3.63;;
34403;SDS011;23116;47.660;9.126;2024-02-16T05:11:01;4.63;;;3.38;;
34403;SDS011;23116;47.660;9.126;2024-02-16T05:13:29;4.10;;;3.70;;
34403;SDS011;23116;47.660;9.126;2024-02-16T05:15:56;4.57;;;3.75;;
34403;SDS011;23116;47.660;9.126;2024-02-16T05:18:23;4.05;;;3.65;;
34403;SDS011;23116;47.660;9.126;2024-02-16T05:20:50;3.45;;;3.15;;
34403;SDS011;23116;47.660;9.126;2024-02-16T05:23:17;4.20;;;3.80;;
34403;SDS011;23116;47.660;9.126;2024-02-16T05:25:45;4.50;;;3.95;;
34403;SDS011;23116;47.660;9.126;2024-02-16T05:28:12;3.85;;;3.55;;
34403;SDS011;23116;47.660;9.126;2024-02-16T05:30:39;4.10;;;3.63;;
34403;SDS011;23116;47.660;9.126;2024-02-16T05:33:06;4.07;;;3.65;;
34403;SDS011;23116;47.660;9.126;2024-02-16T05:35:33;4.60;;;3.80;;
34403;SDS011;23116;47.660;9.126;2024-02-16T05:38:05;4.28;;;3.55;;
34403;SDS011;23116;47.660;9.126;2024-02-16T05:40:36;2.80;;;2.58;;
34403;SDS011;23116;47.660;9.126;2024-02-16T05:43:21;4.15;;;3.70;;
34403;SDS011;23116;47.660;9.126;2024-02-16T05:45:49;3.10;;;2.80;;
34403;SDS011;23116;47.660;9.126;2024-02-16T05:48:16;3.53;;;3.22;;
34403;SDS011;23116;47.660;9.126;2024-02-16T05:50:44;3.65;;;3.33;;
34403;SDS011;23116;47.660;9.126;2024-02-16T05:53:11;4.43;;;3.80;;
34403;SDS011;23116;47.660;9.126;2024-02-16T05:55:38;5.82;;;4.03;;
34403;SDS011;23116;47.660;9.126;2024-02-16T05:58:06;5.28;;;4.78;;
34403;SDS011;23116;47.660;9.126;2024-02-16T06:00:33;4.78;;;4.38;;
34403;SDS011;23116;47.660;9.126;2024-02-16T06:03:01;3.95;;;3.55;;
34403;SDS011;23116;47.660;9.126;2024-02-16T06:05:28;4.30;;;3.90;;
34403;SDS011;23116;47.660;9.126;2024-02-16T06:07:55;4.47;;;4.07;;
34403;SDS011;23116;47.660;9.126;2024-02-16T06:10:24;4.53;;;4.13;;
34403;SDS011;23116;47.660;9.126;2024-02-16T06:12:51;5.75;;;4.40;;
34403;SDS011;23116;47.660;9.126;2024-02-16T06:15:18;7.05;;;4.43;;
34403;SDS011;23116;47.660;9.126;2024-02-16T06:17:45;4.43;;;4.03;;
34403;SDS011;23116;47.660;9.126;2024-02-16T06:20:14;4.18;;;3.80;;
34403;SDS011;23116;47.660;9.126;2024-02-16T06:22:42;5.20;;;4.70;;
34403;SDS011;23116;47.660;9.126;2024-02-16T06:25:09;4.90;;;4.47;;
34403;SDS011;23116;47.660;9.126;2024-02-16T06:27:36;4.40;;;4.00;;
34403;SDS011;23116;47.660;9.126;2024-02-16T06:30:04;5.38;;;4.88;;
34403;SDS011;23116;47.660;9.126;2024-02-16T06:32:38;6.53;;;4.32;;
34403;SDS011;23116;47.660;9.126;2024-02-16T06:35:08;5.10;;;3.67;;
34403;SDS011;23116;47.660;9.126;2024-02-16T06:37:36;7.57;;;5.32;;
34403;SDS011;23116;47.660;9.126;2024-02-16T06:40:04;4.82;;;4.35;;
34403;SDS011;23116;47.660;9.126;2024-02-16T06:42:35;4.47;;;4.03;;
34403;SDS011;23116;47.660;9.126;2024-02-16T06:45:03;5.35;;;4.85;;
34403;SDS011;23116;47.660;9.126;2024-02-16T06:47:31;5.15;;;4.55;;
34403;SDS011;23116;47.660;9.126;2024-02-16T06:49:58;5.40;;;4.75;;
34403;SDS011;23116;47.660;9.126;2024-02-16T06:52:25;5.55;;;5.05;;
34403;SDS011;23116;47.660;9.126;2024-02-16T06:54:53;6.85;;;5.22;;
34403;SDS011;23116;47.660;9.126;2024-02-16T06:57:20;5.68;;;4.47;;
34403;SDS011;23116;47.660;9.126;2024-02-16T06:59:47;5.70;;;5.13;;
34403;SDS011;23116;47.660;9.126;2024-02-16T07:02:15;6.07;;;5.22;;
34403;SDS011;23116;47.660;9.126;2024-02-16T07:04:43;5.97;;;5.30;;
34403;SDS011;23116;47.660;9.126;2024-02-16T07:07:11;5.40;;;4.82;;
34403;SDS011;23116;47.660;9.126;2024-02-16T07:09:39;5.50;;;4.90;;
34403;SDS011;23116;47.660;9.126;2024-02-16T07:12:06;4.78;;;4.30;;
34403;SDS011;23116;47.660;9.126;2024-02-16T07:14:34;6.18;;;5.57;;
34403;SDS011;23116;47.660;9.126;2024-02-16T07:17:01;6.03;;;4.50;;
34403;SDS011;23116;47.660;9.126;2024-02-16T07:19:29;5.80;;;4.65;;
34403;SDS011;23116;47.660;9.126;2024-02-16T07:21:56;4.50;;;4.03;;
34403;SDS011;23116;47.660;9.126;2024-02-16T07:24:23;4.55;;;4.13;;
34403;SDS011;23116;47.660;9.126;2024-02-16T07:26:52;3.78;;;3.42;;
34403;SDS011;23116;47.660;9.126;2024-02-16T07:29:19;4.32;;;3.92;;
34403;SDS011;23116;47.660;9.126;2024-02-16T07:31:50;4.57;;;4.18;;
34403;SDS011;23116;47.660;9.126;2024-02-16T07:34:17;4.38;;;3.97;;
34403;SDS011;23116;47.660;9.126;2024-02-16T07:36:45;4.70;;;4.25;;
34403;SDS011;23116;47.660;9.126;2024-02-16T07:39:12;5.20;;;4.22;;
34403;SDS011;23116;47.660;9.126;2024-02-16T07:41:40;4.15;;;3.72;;
34403;SDS011;23116;47.660;9.126;2024-02-16T07:44:07;4.63;;;4.22;;
34403;SDS011;23116;47.660;9.126;2024-02-16T07:46:39;5.10;;;3.80;;
34403;SDS011;23116;47.660;9.126;2024-02-16T07:49:07;6.80;;;4.10;;
34403;SDS011;23116;47.660;9.126;2024-02-16T07:51:36;5.45;;;4.05;;
34403;SDS011;23116;47.660;9.126;2024-02-16T07:54:03;4.50;;;4.10;;
34403;SDS011;23116;47.660;9.126;2024-02-16T07:56:31;5.15;;;4.32;;
34403;SDS011;23116;47.660;9.126;2024-02-16T07:58:59;4.07;;;3.67;;
34403;SDS011;23116;47.660;9.126;2024-02-16T08:01:26;4.13;;;3.72;;
34403;SDS011;23116;47.660;9.126;2024-02-16T08:03:54;4.28;;;3.88;;
34403;SDS011;23116;47.660;9.126;2024-02-16T08:06:27;4.22;;;3.83;;
34403;SDS011;23116;47.660;9.126;2024-02-16T08:08:54;4.90;;;4.40;;
34403;SDS011;23116;47.660;9.126;2024-02-16T08:11:22;5.72;;;4.00;;
34403;SDS011;23116;47.660;9.126;2024-02-16T08:13:49;4.65;;;4.20;;
34403;SDS011;23116;47.660;9.126;2024-02-16T08:16:16;4.45;;;3.97;;
34403;SDS011;23116;47.660;9.126;2024-02-16T08:18:44;4.70;;;4.18;;
34403;SDS011;23116;47.660;9.126;2024-02-16T08:21:11;4.45;;;4.00;;
34403;SDS011;23116;47.660;9.126;2024-02-16T08:23:38;5.72;;;4.18;;
34403;SDS011;23116;47.660;9.126;2024-02-16T08:26:05;4.22;;;3.83;;
34403;SDS011;23116;47.660;9.126;2024-02-16T08:28:33;4.65;;;4.22;;
34403;SDS011;23116;47.660;9.126;2024-02-16T08:31:00;6.28;;;4.22;;
34403;SDS011;23116;47.660;9.126;2024-02-16T08:33:27;4.03;;;3.72;;
34403;SDS011;23116;47.660;9.126;2024-02-16T08:35:54;6.40;;;4.25;;
34403;SDS011;23116;47.660;9.126;2024-02-16T08:38:21;4.78;;;3.88;;
34403;SDS011;23116;47.660;9.126;2024-02-16T08:40:48;4.50;;;4.10;;
34403;SDS011;23116;47.660;9.126;2024-02-16T08:43:17;5.28;;;4.68;;
34403;SDS011;23116;47.660;9.126;2024-02-16T08:45:44;5.20;;;4.07;;
34403;SDS011;23116;47.660;9.126;2024-02-16T08:48:12;5.07;;;4.30;;
34403;SDS011;23116;47.660;9.126;2024-02-16T08:50:39;6.03;;;4.82;;
34403;SDS011;23116;47.660;9.126;2024-02-16T08:53:06;5.70;;;4.18;;
34403;SDS011;23116;47.660;9.126;2024-02-16T08:55:35;5.22;;;4.72;;
34403;SDS011;23116;47.660;9.126;2024-02-16T08:58:02;5.93;;;4.65;;
34403;SDS011;23116;47.660;9.126;2024-02-16T09:00:32;5.50;;;4.90;;
34403;SDS011;23116;47.660;9.126;2024-02-16T09:02:59;4.53;;;4.13;;
34403;SDS011;23116;47.660;9.126;2024-02-16T09:05:31;5.17;;;4.67;;
34403;SDS011;23116;47.660;9.126;2024-02-16T09:07:58;5.15;;;4.65;;
34403;SDS011;23116;47.660;9.126;2024-02-16T09:10:27;4.22;;;3.83;;
34403;SDS011;23116;47.660;9.126;2024-02-16T09:12:54;4.55;;;4.15;;
34403;SDS011;23116;47.660;9.126;2024-02-16T09:15:21;4.65;;;4.22;;
34403;SDS011;23116;47.660;9.126;2024-02-16T09:17:48;4.97;;;4.43;;
34403;SDS011;23116;47.660;9.126;2024-02-16T09:20:15;4.72;;;4.32;;
34403;SDS011;23116;47.660;9.126;2024-02-16T09:22:47;5.70;;;5.07;;
34403;SDS011;23116;47.660;9.126;2024-02-16T09:25:15;6.47;;;5.53;;
34403;SDS011;23116;47.660;9.126;2024-02-16T09:27:42;4.90;;;4.40;;
34403;SDS011;23116;47.660;9.126;2024-02-16T09:30:10;5.07;;;4.43;;
34403;SDS011;23116;47.660;9.126;2024-02-16T09:32:39;5.38;;;4.78;;
34403;SDS011;23116;47.660;9.126;2024-02-16T09:35:07;6.22;;;5.10;;
34403;SDS011;23116;47.660;9.126;2024-02-16T09:37:34;5.05;;;4.57;;
34403;SDS011;23116;47.660;9.126;2024-02-16T09:40:04;6.70;;;4.43;;
34403;SDS011;23116;47.660;9.126;2024-02-16T09:42:33;5.80;;;4.30;;
34403;SDS011;23116;47.660;9.126;2024-02-16T09:45:07;5.40;;;4.90;;
34403;SDS011;23116;47.660;9.126;2024-02-16T09:47:37;4.38;;;3.97;;
34403;SDS011;23116;47.660;9.126;2024-02-16T09:50:06;5.93;;;4.70;;
34403;SDS011;23116;47.660;9.126;2024-02-16T09:52:35;4.43;;;4.07;;
34403;SDS011;23116;47.660;9.126;2024-02-16T09:55:02;4.88;;;4.47;;
34403;SDS011;23116;47.660;9.126;2024-02-16T09:57:32;5.20;;;4.70;;
34403;SDS011;23116;47.660;9.126;2024-02-16T09:59:59;5.45;;;4.38;;
34403;SDS011;23116;47.660;9.126;2024-02-16T10:02:38;4.90;;;4.45;;
34403;SDS011;23116;47.660;9.126;2024-02-16T10:07:46;4.97;;;4.50;;
34403;SDS011;23116;47.660;9.126;2024-02-16T10:10:23;4.85;;;4.45;;
34403;SDS011;23116;47.660;9.126;2024-02-16T10:13:03;5.38;;;4.82;;
34403;SDS011;23116;47.660;9.126;2024-02-16T10:15:33;5.72;;;5.05;;
34403;SDS011;23116;47.660;9.126;2024-02-16T10:18:01;6.82;;;5.03;;
34403;SDS011;23116;47.660;9.126;2024-02-16T10:20:33;6.85;;;5.38;;
34403;SDS011;23116;47.660;9.126;2024-02-16T10:23:07;5.40;;;4.90;;
34403;SDS011;23116;47.660;9.126;2024-02-16T10:25:36;5.00;;;4.50;;
34403;SDS011;23116;47.660;9.126;2024-02-16T10:28:08;5.70;;;4.53;;
34403;SDS011;23116;47.660;9.126;2024-02-16T10:30:40;5.57;;;4.70;;
34403;SDS011;23116;47.660;9.126;2024-02-16T10:33:09;5.00;;;4.50;;
34403;SDS011;23116;47.660;9.126;2024-02-16T10:35:39;6.13;;;5.05;;
34403;SDS011;23116;47.660;9.126;2024-02-16T10:38:08;5.47;;;4.60;;
34403;SDS011;23116;47.660;9.126;2024-02-16T10:40:37;5.60;;;5.07;;
34403;SDS011;23116;47.660;9.126;2024-02-16T10:43:06;5.65;;;5.13;;
34403;SDS011;23116;47.660;9.126;2024-02-16T10:45:35;5.63;;;5.07;;
34403;SDS011;23116;47.660;9.126;2024-02-16T10:48:04;5.35;;;4.85;;
34403;SDS011;23116;47.660;9.126;2024-02-16T10:50:35;5.80;;;5.30;;
34403;SDS011;23116;47.660;9.126;2024-02-16T10:53:12;5.70;;;5.20;;
34403;SDS011;23116;47.660;9.126;2024-02-16T10:55:46;5.32;;;4.82;;
34403;SDS011;23116;47.660;9.126;2024-02-16T10:58:13;6.43;;;4.70;;
34403;SDS011;23116;47.660;9.126;2024-02-16T11:00:52;5.82;;;5.22;;
34403;SDS011;23116;47.660;9.126;2024-02-16T11:03:25;4.93;;;4.50;;
34403;SDS011;23116;47.660;9.126;2024-02-16T11:05:53;4.95;;;4.45;;
34403;SDS011;23116;47.660;9.126;2024-02-16T11:08:23;5.35;;;4.30;;
34403;SDS011;23116;47.660;9.126;2024-02-16T11:10:53;5.47;;;4.43;;
34403;SDS011;23116;47.660;9.126;2024-02-16T11:13:26;5.20;;;4.70;;
34403;SDS011;23116;47.660;9.126;2024-02-16T11:15:58;5.18;;;4.68;;
34403;SDS011;23116;47.660;9.126;2024-02-16T11:18:28;5.15;;;4.75;;
34403;SDS011;23116;47.660;9.126;2024-02-16T11:20:59;5.05;;;4.65;;
34403;SDS011;23116;47.660;9.126;2024-02-16T11:23:28;5.28;;;4.78;;
34403;SDS011;23116;47.660;9.126;2024-02-16T11:26:03;5.55;;;5.05;;
34403;SDS011;23116;47.660;9.126;2024-02-16T11:28:36;6.15;;;5.03;;
34403;SDS011;23116;47.660;9.126;2024-02-16T11:31:05;7.18;;;4.82;;
34403;SDS011;23116;47.660;9.126;2024-02-16T11:33:33;4.57;;;4.03;;
34403;SDS011;23116;47.660;9.126;2024-02-16T11:36:01;5.35;;;4.85;;
34403;SDS011;23116;47.660;9.126;2024-02-16T11:41:04;5.07;;;4.57;;
34403;SDS011;23116;47.660;9.126;2024-02-16T11:43:35;5.22;;;4.72;;
34403;SDS011;23116;47.660;9.126;2024-02-16T11:46:12;5.95;;;4.78;;
34403;SDS011;23116;47.660;9.126;2024-02-16T11:48:41;5.20;;;4.57;;
34403;SDS011;23116;47.660;9.126;2024-02-16T11:51:08;5.05;;;4.55;;
34403;SDS011;23116;47.660;9.126;2024-02-16T11:53:35;4.88;;;4.47;;
34403;SDS011;23116;47.660;9.126;2024-02-16T11:56:02;5.22;;;4.68;;
34403;SDS011;23116;47.660;9.126;2024-02-16T11:58:30;5.07;;;4.68;;
34403;SDS011;23116;47.660;9.126;2024-02-16T12:00:57;4.93;;;4.53;;
34403;SDS011;23116;47.660;9.126;2024-02-16T12:03:25;4.93;;;4.53;;
34403;SDS011;23116;47.660;9.126;2024-02-16T12:05:57;5.20;;;4.80;;
34403;SDS011;23116;47.660;9.126;2024-02-16T12:08:31;5.60;;;5.10;;
34403;SDS011;23116;47.660;9.126;2024-02-16T12:11:00;5.25;;;4.75;;
34403;SDS011;23116;47.660;9.126;2024-02-16T12:13:28;4.78;;;4.28;;
34403;SDS011;23116;47.660;9.126;2024-02-16T12:15:55;5.18;;;3.80;;
34403;SDS011;23116;47.660;9.126;2024-02-16T12:18:23;4.43;;;4.03;;
34403;SDS011;23116;47.660;9.126;2024-02-16T12:23:31;3.97;;;3.50;;
34403;SDS011;23116;47.660;9.126;2024-02-16T12:25:59;4.50;;;3.80;;
34403;SDS011;23116;47.660;9.126;2024-02-16T12:28:27;4.00;;;3.60;;
34403;SDS011;23116;47.660;9.126;2024-02-16T12:30:59;3.83;;;3.53;;
34403;SDS011;23116;47.660;9.126;2024-02-16T12:33:26;4.20;;;3.85;;
34403;SDS011;23116;47.660;9.126;2024-02-16T12:35:54;3.35;;;3.05;;
34403;SDS011;23116;47.660;9.126;2024-02-16T12:38:21;3.63;;;3.33;;
34403;SDS011;23116;47.660;9.126;2024-02-16T12:40:49;3.50;;;3.20;;
34403;SDS011;23116;47.660;9.126;2024-02-16T12:43:16;3.65;;;2.50;;
34403;SDS011;23116;47.660;9.126;2024-02-16T12:45:45;3.53;;;2.50;;
34403;SDS011;23116;47.660;9.126;2024-02-16T12:48:12;2.47;;;2.22;;
34403;SDS011;23116;47.660;9.126;2024-02-16T12:50:39;2.75;;;2.42;;
34403;SDS011;23116;47.660;9.126;2024-02-16T12:53:07;3.13;;;2.70;;
34403;SDS011;23116;47.660;9.126;2024-02-16T12:55:35;3.75;;;2.65;;
34403;SDS011;23116;47.660;9.126;2024-02-16T12:58:02;2.60;;;2.40;;
34403;SDS011;23116;47.660;9.126;2024-02-16T13:00:30;3.20;;;2.17;;
34403;SDS011;23116;47.660;9.126;2024-02-16T13:02:57;2.15;;;1.95;;
34403;SDS011;23116;47.660;9.126;2024-02-16T13:05:24;3.97;;;2.13;;
34403;SDS011;23116;47.660;9.126;2024-02-16T13:07:52;2.22;;;2.05;;
34403;SDS011;23116;47.660;9.126;2024-02-16T13:10:19;3.67;;;2.13;;
34403;SDS011;23116;47.660;9.126;2024-02-16T13:12:47;2.00;;;1.60;;
34403;SDS011;23116;47.660;9.126;2024-02-16T13:15:14;3.05;;;1.50;;
34403;SDS011;23116;47.660;9.126;2024-02-16T13:17:41;1.88;;;1.30;;
34403;SDS011;23116;47.660;9.126;2024-02-16T13:20:08;1.83;;;1.20;;
34403;SDS011;23116;47.660;9.126;2024-02-16T13:22:36;3.45;;;1.17;;
34403;SDS011;23116;47.660;9.126;2024-02-16T13:25:04;3.13;;;1.50;;
34403;SDS011;23116;47.660;9.126;2024-02-16T13:27:32;1.73;;;1.40;;
34403;SDS011;23116;47.660;9.126;2024-02-16T13:29:59;2.38;;;1.40;;
34403;SDS011;23116;47.660;9.126;2024-02-16T13:32:26;1.98;;;1.65;;
34403;SDS011;23116;47.660;9.126;2024-02-16T13:34:54;1.30;;;1.20;;
34403;SDS011;23116;47.660;9.126;2024-02-16T13:37:21;2.75;;;1.20;;
34403;SDS011;23116;47.660;9.126;2024-02-16T13:39:49;2.30;;;1.33;;
34403;SDS011;23116;47.660;9.126;2024-02-16T13:42:16;1.85;;;1.60;;
34403;SDS011;23116;47.660;9.126;2024-02-16T13:44:44;2.10;;;1.50;;
34403;SDS011;23116;47.660;9.126;2024-02-16T13:47:12;1.60;;;1.20;;
34403;SDS011;23116;47.660;9.126;2024-02-16T13:49:39;1.73;;;1.38;;
34403;SDS011;23116;47.660;9.126;2024-02-16T13:52:07;2.50;;;1.63;;
34403;SDS011;23116;47.660;9.126;2024-02-16T13:54:34;2.35;;;1.27;;
34403;SDS011;23116;47.660;9.126;2024-02-16T13:57:01;1.75;;;1.20;;
34403;SDS011;23116;47.660;9.126;2024-02-16T13:59:29;1.90;;;1.23;;
34403;SDS011;23116;47.660;9.126;2024-02-16T14:01:57;2.22;;;1.30;;
34403;SDS011;23116;47.660;9.126;2024-02-16T14:04:26;1.80;;;1.20;;
34403;SDS011;23116;47.660;9.126;2024-02-16T14:06:54;2.45;;;1.58;;
34403;SDS011;23116;47.660;9.126;2024-02-16T14:09:21;2.53;;;1.45;;
34403;SDS011;23116;47.660;9.126;2024-02-16T14:11:49;1.30;;;1.15;;
34403;SDS011;23116;47.660;9.126;2024-02-16T14:14:18;1.65;;;1.35;;
34403;SDS011;23116;47.660;9.126;2024-02-16T14:16:45;1.20;;;1.10;;
34403;SDS011;23116;47.660;9.126;2024-02-16T14:19:13;1.40;;;1.10;;
34403;SDS011;23116;47.660;9.126;2024-02-16T14:21:40;1.33;;;1.17;;
34403;SDS011;23116;47.660;9.126;2024-02-16T14:24:09;2.35;;;1.30;;
34403;SDS011;23116;47.660;9.126;2024-02-16T14:26:36;3.33;;;1.67;;
34403;SDS011;23116;47.660;9.126;2024-02-16T14:29:06;1.27;;;1.10;;
34403;SDS011;23116;47.660;9.126;2024-02-16T14:31:34;2.50;;;1.35;;
34403;SDS011;23116;47.660;9.126;2024-02-16T14:34:01;4.43;;;1.15;;
34403;SDS011;23116;47.660;9.126;2024-02-16T14:36:28;1.30;;;1.20;;
34403;SDS011;23116;47.660;9.126;2024-02-16T14:38:55;2.97;;;0.90;;
34403;SDS011;23116;47.660;9.126;2024-02-16T14:41:22;1.65;;;1.40;;
34403;SDS011;23116;47.660;9.126;2024-02-16T14:43:49;1.90;;;1.42;;
34403;SDS011;23116;47.660;9.126;2024-02-16T14:46:16;4.75;;;1.80;;
34403;SDS011;23116;47.660;9.126;2024-02-16T14:48:45;1.77;;;1.55;;
34403;SDS011;23116;47.660;9.126;2024-02-16T14:51:13;1.67;;;1.58;;
34403;SDS011;23116;47.660;9.126;2024-02-16T14:53:40;2.78;;;1.48;;
34403;SDS011;23116;47.660;9.126;2024-02-16T14:56:07;2.05;;;1.60;;
34403;SDS011;23116;47.660;9.126;2024-02-16T14:58:35;2.63;;;1.63;;
34403;SDS011;23116;47.660;9.126;2024-02-16T15:01:02;2.25;;;1.40;;